sensor_id;sensor_type;location;lat;lon;timestamp;P1;durP1;ratioP1;P2;durP2;ratioP2
44919;SDS011;30655;53.094;6.072;2022-09-23T00:00:12;9.15;;;8.23;;
44919;SDS011;30655;53.094;6.072;2022-09-23T00:02:41;13.25;;;7.53;;
44919;SDS011;30655;53.094;6.072;2022-09-23T00:05:11;9.13;;;8.30;;
44919;SDS011;30655;53.094;6.072;2022-09-23T00:07:38;9.25;;;7.75;;
44919;SDS011;30655;53.094;6.072;2022-09-23T00:10:06;7.88;;;7.18;;
44919;SDS011;30655;53.094;6.072;2022-09-23T00:12:33;8.90;;;8.00;;
44919;SDS011;30655;53.094;6.072;2022-09-23T00:15:00;9.43;;;8.40;;
44919;SDS011;30655;53.094;6.072;2022-09-23T00:17:29;9.10;;;8.45;;
44919;SDS011;30655;53.094;6.072;2022-09-23T00:20:00;8.85;;;8.23;;
44919;SDS011;30655;53.094;6.072;2022-09-23T00:22:27;9.10;;;8.23;;
44919;SDS011;30655;53.094;6.072;2022-09-23T00:24:54;8.95;;;8.30;;
44919;SDS011;30655;53.094;6.072;2022-09-23T00:27:20;9.27;;;8.38;;
44919;SDS011;30655;53.094;6.072;2022-09-23T00:29:47;9.23;;;8.20;;
44919;SDS011;30655;53.094;6.072;2022-09-23T00:32:14;11.68;;;8.52;;
44919;SDS011;30655;53.094;6.072;2022-09-23T00:34:42;9.48;;;8.75;;
44919;SDS011;30655;53.094;6.072;2022-09-23T00:37:11;9.93;;;9.23;;
44919;SDS011;30655;53.094;6.072;2022-09-23T00:39:38;11.35;;;9.23;;
44919;SDS011;30655;53.094;6.072;2022-09-23T00:42:04;14.48;;;9.65;;
44919;SDS011;30655;53.094;6.072;2022-09-23T00:44:41;10.57;;;9.50;;
44919;SDS011;30655;53.094;6.072;2022-09-23T00:47:11;10.90;;;9.90;;
44919;SDS011;30655;53.094;6.072;2022-09-23T00:49:43;11.63;;;10.48;;
44919;SDS011;30655;53.094;6.072;2022-09-23T00:52:16;14.60;;;10.00;;
44919;SDS011;30655;53.094;6.072;2022-09-23T00:54:45;10.73;;;9.65;;
44919;SDS011;30655;53.094;6.072;2022-09-23T00:57:12;14.13;;;10.07;;
44919;SDS011;30655;53.094;6.072;2022-09-23T00:59:41;11.65;;;10.63;;
44919;SDS011;30655;53.094;6.072;2022-09-23T01:02:09;15.90;;;11.10;;
44919;SDS011;30655;53.094;6.072;2022-09-23T01:04:38;12.35;;;11.15;;
44919;SDS011;30655;53.094;6.072;2022-09-23T01:07:06;11.15;;;9.95;;
44919;SDS011;30655;53.094;6.072;2022-09-23T01:09:34;14.68;;;10.75;;
44919;SDS011;30655;53.094;6.072;2022-09-23T01:12:04;12.48;;;10.60;;
44919;SDS011;30655;53.094;6.072;2022-09-23T01:17:15;11.93;;;10.82;;
44919;SDS011;30655;53.094;6.072;2022-09-23T01:19:56;12.73;;;11.43;;
44919;SDS011;30655;53.094;6.072;2022-09-23T01:22:40;12.40;;;11.40;;
44919;SDS011;30655;53.094;6.072;2022-09-23T01:25:18;13.77;;;12.23;;
44919;SDS011;30655;53.094;6.072;2022-09-23T01:28:03;12.38;;;11.13;;
44919;SDS011;30655;53.094;6.072;2022-09-23T01:30:46;12.38;;;11.48;;
44919;SDS011;30655;53.094;6.072;2022-09-23T01:33:19;16.45;;;12.40;;
44919;SDS011;30655;53.094;6.072;2022-09-23T01:35:54;12.52;;;11.40;;
44919;SDS011;30655;53.094;6.072;2022-09-23T01:38:34;12.00;;;11.02;;
44919;SDS011;30655;53.094;6.072;2022-09-23T01:41:15;14.02;;;11.93;;
44919;SDS011;30655;53.094;6.072;2022-09-23T01:43:57;13.80;;;12.50;;
44919;SDS011;30655;53.094;6.072;2022-09-23T01:46:31;11.95;;;11.00;;
44919;SDS011;30655;53.094;6.072;2022-09-23T01:49:05;12.88;;;11.77;;
44919;SDS011;30655;53.094;6.072;2022-09-23T01:51:36;13.27;;;12.00;;
44919;SDS011;30655;53.094;6.072;2022-09-23T01:56:37;13.57;;;12.13;;
44919;SDS011;30655;53.094;6.072;2022-09-23T01:59:09;13.73;;;12.43;;
44919;SDS011;30655;53.094;6.072;2022-09-23T02:01:42;12.23;;;11.07;;
44919;SDS011;30655;53.094;6.072;2022-09-23T02:04:22;13.93;;;12.73;;
44919;SDS011;30655;53.094;6.072;2022-09-23T02:06:54;15.98;;;13.43;;
44919;SDS011;30655;53.094;6.072;2022-09-23T02:09:24;14.20;;;12.88;;
44919;SDS011;30655;53.094;6.072;2022-09-23T02:11:59;13.50;;;12.25;;
44919;SDS011;30655;53.094;6.072;2022-09-23T02:14:31;13.75;;;12.52;;
44919;SDS011;30655;53.094;6.072;2022-09-23T02:17:04;13.18;;;11.93;;
44919;SDS011;30655;53.094;6.072;2022-09-23T02:19:36;14.38;;;13.02;;
44919;SDS011;30655;53.094;6.072;2022-09-23T02:22:08;20.45;;;13.57;;
44919;SDS011;30655;53.094;6.072;2022-09-23T02:24:38;19.63;;;13.65;;
44919;SDS011;30655;53.094;6.072;2022-09-23T02:27:07;15.05;;;13.65;;
44919;SDS011;30655;53.094;6.072;2022-09-23T02:29:42;14.95;;;13.32;;
44919;SDS011;30655;53.094;6.072;2022-09-23T02:32:18;15.05;;;13.45;;
44919;SDS011;30655;53.094;6.072;2022-09-23T02:34:51;14.73;;;13.30;;
44919;SDS011;30655;53.094;6.072;2022-09-23T02:37:24;14.15;;;13.02;;
44919;SDS011;30655;53.094;6.072;2022-09-23T02:40:02;14.65;;;13.27;;
44919;SDS011;30655;53.094;6.072;2022-09-23T02:42:42;16.30;;;12.85;;
44919;SDS011;30655;53.094;6.072;2022-09-23T02:45:15;14.15;;;12.95;;
44919;SDS011;30655;53.094;6.072;2022-09-23T02:47:45;15.85;;;14.15;;
44919;SDS011;30655;53.094;6.072;2022-09-23T02:50:15;15.20;;;13.57;;
44919;SDS011;30655;53.094;6.072;2022-09-23T02:52:44;15.95;;;13.10;;
44919;SDS011;30655;53.094;6.072;2022-09-23T02:55:11;23.80;;;14.85;;
44919;SDS011;30655;53.094;6.072;2022-09-23T02:57:42;18.05;;;14.27;;
44919;SDS011;30655;53.094;6.072;2022-09-23T03:00:10;16.02;;;14.48;;
44919;SDS011;30655;53.094;6.072;2022-09-23T03:02:42;18.77;;;14.60;;
44919;SDS011;30655;53.094;6.072;2022-09-23T03:05:23;14.73;;;13.45;;
44919;SDS011;30655;53.094;6.072;2022-09-23T03:07:57;17.33;;;15.10;;
44919;SDS011;30655;53.094;6.072;2022-09-23T03:10:41;16.20;;;14.30;;
44919;SDS011;30655;53.094;6.072;2022-09-23T03:13:20;16.20;;;14.68;;
44919;SDS011;30655;53.094;6.072;2022-09-23T03:15:58;19.13;;;15.30;;
44919;SDS011;30655;53.094;6.072;2022-09-23T03:18:36;16.38;;;14.70;;
44919;SDS011;30655;53.094;6.072;2022-09-23T03:21:08;17.10;;;14.98;;
44919;SDS011;30655;53.094;6.072;2022-09-23T03:23:43;17.83;;;16.00;;
44919;SDS011;30655;53.094;6.072;2022-09-23T03:26:13;16.67;;;14.98;;
44919;SDS011;30655;53.094;6.072;2022-09-23T03:28:47;18.10;;;16.27;;
44919;SDS011;30655;53.094;6.072;2022-09-23T03:31:15;17.70;;;16.00;;
44919;SDS011;30655;53.094;6.072;2022-09-23T03:33:45;18.15;;;16.05;;
44919;SDS011;30655;53.094;6.072;2022-09-23T03:36:16;16.60;;;14.85;;
44919;SDS011;30655;53.094;6.072;2022-09-23T03:38:47;18.55;;;15.07;;
44919;SDS011;30655;53.094;6.072;2022-09-23T03:41:18;17.42;;;15.65;;
44919;SDS011;30655;53.094;6.072;2022-09-23T03:43:50;16.60;;;14.25;;
44919;SDS011;30655;53.094;6.072;2022-09-23T03:46:19;16.48;;;14.95;;
44919;SDS011;30655;53.094;6.072;2022-09-23T03:48:48;17.23;;;15.23;;
44919;SDS011;30655;53.094;6.072;2022-09-23T03:51:18;15.48;;;14.07;;
44919;SDS011;30655;53.094;6.072;2022-09-23T03:53:47;17.15;;;15.20;;
44919;SDS011;30655;53.094;6.072;2022-09-23T03:56:14;16.52;;;14.77;;
44919;SDS011;30655;53.094;6.072;2022-09-23T03:58:40;16.88;;;15.23;;
44919;SDS011;30655;53.094;6.072;2022-09-23T04:01:07;16.10;;;14.43;;
44919;SDS011;30655;53.094;6.072;2022-09-23T04:03:36;16.25;;;14.65;;
44919;SDS011;30655;53.094;6.072;2022-09-23T04:06:08;16.58;;;14.88;;
44919;SDS011;30655;53.094;6.072;2022-09-23T04:08:35;16.30;;;14.07;;
44919;SDS011;30655;53.094;6.072;2022-09-23T04:11:02;16.95;;;15.23;;
44919;SDS011;30655;53.094;6.072;2022-09-23T04:13:29;16.40;;;14.88;;
44919;SDS011;30655;53.094;6.072;2022-09-23T04:15:57;17.40;;;15.63;;
44919;SDS011;30655;53.094;6.072;2022-09-23T04:18:24;17.35;;;15.65;;
44919;SDS011;30655;53.094;6.072;2022-09-23T04:20:55;17.35;;;15.60;;
44919;SDS011;30655;53.094;6.072;2022-09-23T04:23:26;17.40;;;15.63;;
44919;SDS011;30655;53.094;6.072;2022-09-23T04:25:53;16.73;;;15.10;;
44919;SDS011;30655;53.094;6.072;2022-09-23T04:28:20;17.80;;;15.77;;
44919;SDS011;30655;53.094;6.072;2022-09-23T04:30:47;17.48;;;15.60;;
44919;SDS011;30655;53.094;6.072;2022-09-23T04:33:15;17.80;;;16.08;;
44919;SDS011;30655;53.094;6.072;2022-09-23T04:35:42;17.30;;;15.50;;
44919;SDS011;30655;53.094;6.072;2022-09-23T04:38:10;17.45;;;15.13;;
44919;SDS011;30655;53.094;6.072;2022-09-23T04:40:39;16.90;;;15.13;;
44919;SDS011;30655;53.094;6.072;2022-09-23T04:43:06;17.63;;;15.35;;
44919;SDS011;30655;53.094;6.072;2022-09-23T04:45:38;16.65;;;15.15;;
44919;SDS011;30655;53.094;6.072;2022-09-23T04:48:07;18.88;;;15.40;;
44919;SDS011;30655;53.094;6.072;2022-09-23T04:50:35;17.00;;;14.60;;
44919;SDS011;30655;53.094;6.072;2022-09-23T04:53:03;16.25;;;14.52;;
44919;SDS011;30655;53.094;6.072;2022-09-23T04:55:33;16.83;;;15.20;;
44919;SDS011;30655;53.094;6.072;2022-09-23T04:58:10;16.58;;;15.07;;
44919;SDS011;30655;53.094;6.072;2022-09-23T05:00:37;16.75;;;14.98;;
44919;SDS011;30655;53.094;6.072;2022-09-23T05:03:04;16.88;;;15.27;;
44919;SDS011;30655;53.094;6.072;2022-09-23T05:05:33;20.70;;;15.73;;
44919;SDS011;30655;53.094;6.072;2022-09-23T05:08:00;20.23;;;15.88;;
44919;SDS011;30655;53.094;6.072;2022-09-23T05:10:29;17.83;;;16.08;;
44919;SDS011;30655;53.094;6.072;2022-09-23T05:12:56;16.63;;;15.05;;
44919;SDS011;30655;53.094;6.072;2022-09-23T05:15:25;17.38;;;15.50;;
44919;SDS011;30655;53.094;6.072;2022-09-23T05:17:51;19.60;;;16.08;;
44919;SDS011;30655;53.094;6.072;2022-09-23T05:20:26;17.35;;;15.65;;
44919;SDS011;30655;53.094;6.072;2022-09-23T05:22:53;18.30;;;16.40;;
44919;SDS011;30655;53.094;6.072;2022-09-23T05:25:20;16.60;;;14.93;;
44919;SDS011;30655;53.094;6.072;2022-09-23T05:27:47;16.48;;;14.98;;
44919;SDS011;30655;53.094;6.072;2022-09-23T05:30:14;18.25;;;16.23;;
44919;SDS011;30655;53.094;6.072;2022-09-23T05:32:43;17.98;;;16.15;;
44919;SDS011;30655;53.094;6.072;2022-09-23T05:35:09;17.65;;;15.75;;
44919;SDS011;30655;53.094;6.072;2022-09-23T05:37:36;19.15;;;17.10;;
44919;SDS011;30655;53.094;6.072;2022-09-23T05:40:03;18.05;;;16.17;;
44919;SDS011;30655;53.094;6.072;2022-09-23T05:42:30;16.25;;;14.55;;
44919;SDS011;30655;53.094;6.072;2022-09-23T05:44:58;17.15;;;15.55;;
44919;SDS011;30655;53.094;6.072;2022-09-23T05:47:25;16.45;;;14.85;;
44919;SDS011;30655;53.094;6.072;2022-09-23T05:49:53;18.10;;;16.25;;
44919;SDS011;30655;53.094;6.072;2022-09-23T05:52:26;16.90;;;15.48;;
44919;SDS011;30655;53.094;6.072;2022-09-23T05:54:53;17.05;;;15.63;;
44919;SDS011;30655;53.094;6.072;2022-09-23T05:57:22;17.75;;;16.10;;
44919;SDS011;30655;53.094;6.072;2022-09-23T05:59:49;20.05;;;15.65;;
44919;SDS011;30655;53.094;6.072;2022-09-23T06:02:15;17.60;;;15.82;;
44919;SDS011;30655;53.094;6.072;2022-09-23T06:04:43;17.83;;;16.13;;
44919;SDS011;30655;53.094;6.072;2022-09-23T06:07:11;19.23;;;15.70;;
44919;SDS011;30655;53.094;6.072;2022-09-23T06:09:38;18.27;;;16.58;;
44919;SDS011;30655;53.094;6.072;2022-09-23T06:12:04;18.08;;;16.40;;
44919;SDS011;30655;53.094;6.072;2022-09-23T06:14:32;18.55;;;15.95;;
44919;SDS011;30655;53.094;6.072;2022-09-23T06:16:58;17.20;;;15.60;;
44919;SDS011;30655;53.094;6.072;2022-09-23T06:19:27;17.27;;;14.98;;
44919;SDS011;30655;53.094;6.072;2022-09-23T06:21:53;17.75;;;16.08;;
44919;SDS011;30655;53.094;6.072;2022-09-23T06:24:22;19.85;;;15.45;;
44919;SDS011;30655;53.094;6.072;2022-09-23T06:26:56;17.08;;;15.48;;
44919;SDS011;30655;53.094;6.072;2022-09-23T06:29:23;16.10;;;14.70;;
44919;SDS011;30655;53.094;6.072;2022-09-23T06:31:50;16.80;;;15.20;;
44919;SDS011;30655;53.094;6.072;2022-09-23T06:34:17;17.02;;;15.43;;
44919;SDS011;30655;53.094;6.072;2022-09-23T06:36:46;16.27;;;14.88;;
44919;SDS011;30655;53.094;6.072;2022-09-23T06:39:13;16.73;;;15.02;;
44919;SDS011;30655;53.094;6.072;2022-09-23T06:41:42;17.10;;;15.48;;
44919;SDS011;30655;53.094;6.072;2022-09-23T06:44:10;18.02;;;16.25;;
44919;SDS011;30655;53.094;6.072;2022-09-23T06:46:36;17.80;;;15.40;;
44919;SDS011;30655;53.094;6.072;2022-09-23T06:49:03;16.63;;;15.23;;
44919;SDS011;30655;53.094;6.072;2022-09-23T06:51:30;16.98;;;15.35;;
44919;SDS011;30655;53.094;6.072;2022-09-23T06:53:57;16.98;;;15.23;;
44919;SDS011;30655;53.094;6.072;2022-09-23T06:56:24;16.27;;;14.85;;
44919;SDS011;30655;53.094;6.072;2022-09-23T06:58:53;15.95;;;14.55;;
44919;SDS011;30655;53.094;6.072;2022-09-23T07:01:20;16.48;;;14.77;;
44919;SDS011;30655;53.094;6.072;2022-09-23T07:03:48;17.25;;;15.60;;
44919;SDS011;30655;53.094;6.072;2022-09-23T07:06:17;17.23;;;15.65;;
44919;SDS011;30655;53.094;6.072;2022-09-23T07:08:44;16.85;;;15.18;;
44919;SDS011;30655;53.094;6.072;2022-09-23T07:11:11;16.92;;;14.85;;
44919;SDS011;30655;53.094;6.072;2022-09-23T07:13:39;15.68;;;14.38;;
44919;SDS011;30655;53.094;6.072;2022-09-23T07:16:20;16.17;;;14.38;;
44919;SDS011;30655;53.094;6.072;2022-09-23T07:18:49;15.38;;;14.05;;
44919;SDS011;30655;53.094;6.072;2022-09-23T07:21:17;14.77;;;13.57;;
44919;SDS011;30655;53.094;6.072;2022-09-23T07:23:45;16.50;;;14.32;;
44919;SDS011;30655;53.094;6.072;2022-09-23T07:26:20;14.98;;;13.57;;
44919;SDS011;30655;53.094;6.072;2022-09-23T07:28:51;15.10;;;13.80;;
44919;SDS011;30655;53.094;6.072;2022-09-23T07:31:23;15.63;;;14.15;;
44919;SDS011;30655;53.094;6.072;2022-09-23T07:34:04;20.55;;;14.77;;
44919;SDS011;30655;53.094;6.072;2022-09-23T07:36:38;15.65;;;14.30;;
44919;SDS011;30655;53.094;6.072;2022-09-23T07:39:09;15.82;;;14.18;;
44919;SDS011;30655;53.094;6.072;2022-09-23T07:41:37;15.95;;;13.93;;
44919;SDS011;30655;53.094;6.072;2022-09-23T07:44:04;15.18;;;13.60;;
44919;SDS011;30655;53.094;6.072;2022-09-23T07:49:15;15.20;;;13.85;;
44919;SDS011;30655;53.094;6.072;2022-09-23T07:51:42;15.10;;;12.90;;
44919;SDS011;30655;53.094;6.072;2022-09-23T07:54:10;14.43;;;13.10;;
44919;SDS011;30655;53.094;6.072;2022-09-23T07:56:37;14.45;;;12.98;;
44919;SDS011;30655;53.094;6.072;2022-09-23T07:59:05;14.57;;;13.23;;
44919;SDS011;30655;53.094;6.072;2022-09-23T08:01:34;14.38;;;13.27;;
44919;SDS011;30655;53.094;6.072;2022-09-23T08:04:05;14.27;;;12.90;;
44919;SDS011;30655;53.094;6.072;2022-09-23T08:06:38;14.02;;;12.95;;
44919;SDS011;30655;53.094;6.072;2022-09-23T08:09:06;14.40;;;12.98;;
44919;SDS011;30655;53.094;6.072;2022-09-23T08:11:34;13.18;;;11.95;;
44919;SDS011;30655;53.094;6.072;2022-09-23T08:14:03;16.67;;;12.43;;
44919;SDS011;30655;53.094;6.072;2022-09-23T08:16:37;13.80;;;12.80;;
44919;SDS011;30655;53.094;6.072;2022-09-23T08:19:08;13.25;;;12.15;;
44919;SDS011;30655;53.094;6.072;2022-09-23T08:21:38;13.18;;;12.05;;
44919;SDS011;30655;53.094;6.072;2022-09-23T08:24:13;12.50;;;11.60;;
44919;SDS011;30655;53.094;6.072;2022-09-23T08:26:44;13.20;;;11.65;;
44919;SDS011;30655;53.094;6.072;2022-09-23T08:29:12;13.27;;;12.05;;
44919;SDS011;30655;53.094;6.072;2022-09-23T08:31:39;13.48;;;11.98;;
44919;SDS011;30655;53.094;6.072;2022-09-23T08:34:08;14.27;;;12.55;;
44919;SDS011;30655;53.094;6.072;2022-09-23T08:36:35;13.23;;;11.98;;
44919;SDS011;30655;53.094;6.072;2022-09-23T08:39:04;16.45;;;12.05;;
44919;SDS011;30655;53.094;6.072;2022-09-23T08:41:34;12.98;;;11.77;;
44919;SDS011;30655;53.094;6.072;2022-09-23T08:44:09;12.32;;;11.35;;
44919;SDS011;30655;53.094;6.072;2022-09-23T08:46:43;17.10;;;11.80;;
44919;SDS011;30655;53.094;6.072;2022-09-23T08:49:18;11.93;;;10.93;;
44919;SDS011;30655;53.094;6.072;2022-09-23T08:51:50;14.15;;;10.63;;
44919;SDS011;30655;53.094;6.072;2022-09-23T08:54:19;11.40;;;10.30;;
44919;SDS011;30655;53.094;6.072;2022-09-23T08:56:55;11.45;;;10.45;;
44919;SDS011;30655;53.094;6.072;2022-09-23T08:59:39;12.15;;;10.95;;
44919;SDS011;30655;53.094;6.072;2022-09-23T09:02:13;11.57;;;10.45;;
44919;SDS011;30655;53.094;6.072;2022-09-23T09:04:50;11.48;;;10.52;;
44919;SDS011;30655;53.094;6.072;2022-09-23T09:07:20;11.48;;;10.40;;
44919;SDS011;30655;53.094;6.072;2022-09-23T09:10:14;14.20;;;10.55;;
44919;SDS011;30655;53.094;6.072;2022-09-23T09:12:47;11.68;;;10.32;;
44919;SDS011;30655;53.094;6.072;2022-09-23T09:15:17;11.93;;;10.80;;
44919;SDS011;30655;53.094;6.072;2022-09-23T09:17:55;21.00;;;9.85;;
44919;SDS011;30655;53.094;6.072;2022-09-23T09:20:30;11.35;;;10.55;;
44919;SDS011;30655;53.094;6.072;2022-09-23T09:23:06;11.68;;;10.50;;
44919;SDS011;30655;53.094;6.072;2022-09-23T09:25:46;12.50;;;11.27;;
44919;SDS011;30655;53.094;6.072;2022-09-23T09:28:17;12.13;;;11.05;;
44919;SDS011;30655;53.094;6.072;2022-09-23T09:30:51;14.15;;;11.15;;
44919;SDS011;30655;53.094;6.072;2022-09-23T09:33:23;14.23;;;11.10;;
44919;SDS011;30655;53.094;6.072;2022-09-23T09:36:03;11.80;;;10.80;;
44919;SDS011;30655;53.094;6.072;2022-09-23T09:38:35;12.27;;;11.27;;
44919;SDS011;30655;53.094;6.072;2022-09-23T09:41:07;12.77;;;11.65;;
44919;SDS011;30655;53.094;6.072;2022-09-23T09:43:39;12.80;;;11.55;;
44919;SDS011;30655;53.094;6.072;2022-09-23T09:46:14;12.75;;;11.43;;
44919;SDS011;30655;53.094;6.072;2022-09-23T09:48:52;11.90;;;10.98;;
44919;SDS011;30655;53.094;6.072;2022-09-23T09:51:23;13.40;;;12.07;;
44919;SDS011;30655;53.094;6.072;2022-09-23T09:53:54;12.27;;;11.07;;
44919;SDS011;30655;53.094;6.072;2022-09-23T09:56:40;12.32;;;11.32;;
44919;SDS011;30655;53.094;6.072;2022-09-23T09:59:08;12.57;;;11.45;;
44919;SDS011;30655;53.094;6.072;2022-09-23T10:01:37;12.73;;;11.35;;
44919;SDS011;30655;53.094;6.072;2022-09-23T10:07:02;11.95;;;10.95;;
44919;SDS011;30655;53.094;6.072;2022-09-23T10:09:31;14.68;;;11.05;;
44919;SDS011;30655;53.094;6.072;2022-09-23T10:12:10;12.20;;;11.00;;
44919;SDS011;30655;53.094;6.072;2022-09-23T10:14:38;15.60;;;12.45;;
44919;SDS011;30655;53.094;6.072;2022-09-23T10:17:05;12.02;;;11.00;;
44919;SDS011;30655;53.094;6.072;2022-09-23T10:19:34;11.98;;;10.77;;
44919;SDS011;30655;53.094;6.072;2022-09-23T10:22:07;13.38;;;12.05;;
44919;SDS011;30655;53.094;6.072;2022-09-23T10:24:46;14.60;;;11.98;;
44919;SDS011;30655;53.094;6.072;2022-09-23T10:30:20;15.80;;;11.90;;
44919;SDS011;30655;53.094;6.072;2022-09-23T10:32:54;13.95;;;12.80;;
44919;SDS011;30655;53.094;6.072;2022-09-23T10:35:22;16.80;;;12.40;;
44919;SDS011;30655;53.094;6.072;2022-09-23T10:40:53;16.67;;;13.52;;
44919;SDS011;30655;53.094;6.072;2022-09-23T10:43:26;14.45;;;12.45;;
44919;SDS011;30655;53.094;6.072;2022-09-23T10:45:59;20.13;;;15.55;;
44919;SDS011;30655;53.094;6.072;2022-09-23T10:48:31;15.88;;;14.15;;
44919;SDS011;30655;53.094;6.072;2022-09-23T10:51:23;19.25;;;14.98;;
44919;SDS011;30655;53.094;6.072;2022-09-23T10:54:00;16.50;;;14.43;;
44919;SDS011;30655;53.094;6.072;2022-09-23T10:56:38;15.50;;;13.68;;
44919;SDS011;30655;53.094;6.072;2022-09-23T10:59:15;16.30;;;14.55;;
44919;SDS011;30655;53.094;6.072;2022-09-23T11:02:00;15.75;;;14.27;;
44919;SDS011;30655;53.094;6.072;2022-09-23T11:04:52;18.38;;;14.95;;
44919;SDS011;30655;53.094;6.072;2022-09-23T11:07:55;22.02;;;15.55;;
44919;SDS011;30655;53.094;6.072;2022-09-23T11:11:11;18.02;;;15.02;;
44919;SDS011;30655;53.094;6.072;2022-09-23T11:14:13;18.98;;;15.07;;
44919;SDS011;30655;53.094;6.072;2022-09-23T11:24:31;18.38;;;16.20;;
44919;SDS011;30655;53.094;6.072;2022-09-23T11:27:29;18.65;;;16.55;;
44919;SDS011;30655;53.094;6.072;2022-09-23T11:30:18;21.30;;;16.55;;
44919;SDS011;30655;53.094;6.072;2022-09-23T11:33:57;19.33;;;17.25;;
44919;SDS011;30655;53.094;6.072;2022-09-23T11:40:04;18.80;;;16.70;;
44919;SDS011;30655;53.094;6.072;2022-09-23T11:42:54;17.70;;;15.90;;
44919;SDS011;30655;53.094;6.072;2022-09-23T11:45:29;19.45;;;16.98;;
44919;SDS011;30655;53.094;6.072;2022-09-23T11:48:37;18.33;;;16.48;;
44919;SDS011;30655;53.094;6.072;2022-09-23T11:51:13;18.73;;;16.52;;
44919;SDS011;30655;53.094;6.072;2022-09-23T11:56:59;19.38;;;16.60;;
44919;SDS011;30655;53.094;6.072;2022-09-23T11:59:58;19.27;;;16.50;;
44919;SDS011;30655;53.094;6.072;2022-09-23T12:05:58;17.08;;;15.38;;
44919;SDS011;30655;53.094;6.072;2022-09-23T12:08:28;18.10;;;15.90;;
44919;SDS011;30655;53.094;6.072;2022-09-23T12:11:42;18.23;;;16.15;;
44919;SDS011;30655;53.094;6.072;2022-09-23T12:18:32;22.40;;;17.23;;
44919;SDS011;30655;53.094;6.072;2022-09-23T12:21:54;21.63;;;16.85;;
44919;SDS011;30655;53.094;6.072;2022-09-23T12:24:55;20.33;;;17.38;;
44919;SDS011;30655;53.094;6.072;2022-09-23T12:27:44;20.15;;;18.00;;
44919;SDS011;30655;53.094;6.072;2022-09-23T12:30:46;22.95;;;18.63;;
44919;SDS011;30655;53.094;6.072;2022-09-23T12:42:43;24.13;;;19.02;;
44919;SDS011;30655;53.094;6.072;2022-09-23T12:45:32;25.30;;;19.75;;
44919;SDS011;30655;53.094;6.072;2022-09-23T12:51:17;26.05;;;21.77;;
44919;SDS011;30655;53.094;6.072;2022-09-23T12:56:58;27.63;;;23.25;;
44919;SDS011;30655;53.094;6.072;2022-09-23T12:59:29;31.55;;;25.30;;
44919;SDS011;30655;53.094;6.072;2022-09-23T13:02:26;30.92;;;24.88;;
44919;SDS011;30655;53.094;6.072;2022-09-23T13:04:58;28.73;;;23.58;;
44919;SDS011;30655;53.094;6.072;2022-09-23T13:07:47;31.55;;;24.15;;
44919;SDS011;30655;53.094;6.072;2022-09-23T13:10:26;31.27;;;22.73;;
44919;SDS011;30655;53.094;6.072;2022-09-23T13:20:31;23.85;;;20.92;;
44919;SDS011;30655;53.094;6.072;2022-09-23T13:27:19;29.85;;;23.90;;
44919;SDS011;30655;53.094;6.072;2022-09-23T13:31:05;26.00;;;20.20;;
44919;SDS011;30655;53.094;6.072;2022-09-23T13:33:44;24.25;;;21.60;;
44919;SDS011;30655;53.094;6.072;2022-09-23T13:40:05;24.02;;;21.38;;
44919;SDS011;30655;53.094;6.072;2022-09-23T13:42:37;28.52;;;23.08;;
44919;SDS011;30655;53.094;6.072;2022-09-23T13:45:11;26.10;;;21.35;;
44919;SDS011;30655;53.094;6.072;2022-09-23T13:47:40;30.45;;;20.83;;
44919;SDS011;30655;53.094;6.072;2022-09-23T13:50:13;24.48;;;22.00;;
44919;SDS011;30655;53.094;6.072;2022-09-23T14:03:15;22.50;;;19.90;;
44919;SDS011;30655;53.094;6.072;2022-09-23T14:05:43;21.27;;;18.95;;
44919;SDS011;30655;53.094;6.072;2022-09-23T14:08:10;19.98;;;17.95;;
44919;SDS011;30655;53.094;6.072;2022-09-23T14:10:39;20.25;;;18.17;;
44919;SDS011;30655;53.094;6.072;2022-09-23T14:13:11;23.02;;;19.40;;
44919;SDS011;30655;53.094;6.072;2022-09-23T14:15:40;21.38;;;19.27;;
44919;SDS011;30655;53.094;6.072;2022-09-23T14:18:07;21.65;;;19.38;;
44919;SDS011;30655;53.094;6.072;2022-09-23T14:20:43;24.17;;;19.58;;
44919;SDS011;30655;53.094;6.072;2022-09-23T14:23:13;25.13;;;19.98;;
44919;SDS011;30655;53.094;6.072;2022-09-23T14:25:40;21.17;;;18.92;;
44919;SDS011;30655;53.094;6.072;2022-09-23T14:28:09;20.73;;;18.60;;
44919;SDS011;30655;53.094;6.072;2022-09-23T14:30:40;23.33;;;19.70;;
44919;SDS011;30655;53.094;6.072;2022-09-23T14:33:08;24.48;;;19.30;;
44919;SDS011;30655;53.094;6.072;2022-09-23T14:35:40;21.80;;;19.50;;
44919;SDS011;30655;53.094;6.072;2022-09-23T14:38:09;21.95;;;19.75;;
44919;SDS011;30655;53.094;6.072;2022-09-23T14:40:47;22.08;;;19.92;;
44919;SDS011;30655;53.094;6.072;2022-09-23T14:43:19;24.20;;;19.27;;
44919;SDS011;30655;53.094;6.072;2022-09-23T14:45:49;23.65;;;18.70;;
44919;SDS011;30655;53.094;6.072;2022-09-23T14:48:21;21.33;;;18.20;;
44919;SDS011;30655;53.094;6.072;2022-09-23T14:50:50;23.35;;;18.15;;
44919;SDS011;30655;53.094;6.072;2022-09-23T14:53:29;25.55;;;19.63;;
44919;SDS011;30655;53.094;6.072;2022-09-23T14:56:14;23.02;;;20.63;;
44919;SDS011;30655;53.094;6.072;2022-09-23T14:58:45;26.55;;;18.55;;
44919;SDS011;30655;53.094;6.072;2022-09-23T15:01:34;19.50;;;17.67;;
44919;SDS011;30655;53.094;6.072;2022-09-23T15:04:10;20.90;;;18.77;;
44919;SDS011;30655;53.094;6.072;2022-09-23T15:06:41;21.25;;;18.95;;
44919;SDS011;30655;53.094;6.072;2022-09-23T15:09:18;22.40;;;18.42;;
44919;SDS011;30655;53.094;6.072;2022-09-23T15:18:24;25.58;;;20.08;;
44919;SDS011;30655;53.094;6.072;2022-09-23T15:31:35;23.25;;;20.70;;
44919;SDS011;30655;53.094;6.072;2022-09-23T15:34:09;21.33;;;19.33;;
44919;SDS011;30655;53.094;6.072;2022-09-23T15:37:20;22.48;;;19.02;;
44919;SDS011;30655;53.094;6.072;2022-09-23T15:39:56;26.58;;;20.58;;
44919;SDS011;30655;53.094;6.072;2022-09-23T15:43:01;24.15;;;21.23;;
44919;SDS011;30655;53.094;6.072;2022-09-23T15:53:00;24.27;;;21.77;;
44919;SDS011;30655;53.094;6.072;2022-09-23T15:58:25;28.48;;;21.83;;
44919;SDS011;30655;53.094;6.072;2022-09-23T16:03:03;26.00;;;21.85;;
44919;SDS011;30655;53.094;6.072;2022-09-23T16:05:33;25.00;;;22.00;;
44919;SDS011;30655;53.094;6.072;2022-09-23T16:14:18;25.15;;;22.65;;
44919;SDS011;30655;53.094;6.072;2022-09-23T16:16:45;25.42;;;22.60;;
44919;SDS011;30655;53.094;6.072;2022-09-23T16:19:14;24.58;;;22.05;;
44919;SDS011;30655;53.094;6.072;2022-09-23T16:21:46;25.35;;;22.58;;
44919;SDS011;30655;53.094;6.072;2022-09-23T16:27:29;25.85;;;20.58;;
44919;SDS011;30655;53.094;6.072;2022-09-23T16:29:56;23.75;;;20.48;;
44919;SDS011;30655;53.094;6.072;2022-09-23T16:32:27;27.13;;;22.08;;
44919;SDS011;30655;53.094;6.072;2022-09-23T16:34:54;23.77;;;20.65;;
44919;SDS011;30655;53.094;6.072;2022-09-23T16:37:33;26.67;;;21.95;;
44919;SDS011;30655;53.094;6.072;2022-09-23T16:40:07;23.48;;;20.27;;
44919;SDS011;30655;53.094;6.072;2022-09-23T16:45:34;22.95;;;20.83;;
44919;SDS011;30655;53.094;6.072;2022-09-23T16:48:14;26.58;;;23.75;;
44919;SDS011;30655;53.094;6.072;2022-09-23T16:50:56;23.13;;;20.63;;
44919;SDS011;30655;53.094;6.072;2022-09-23T16:53:30;24.02;;;20.35;;
44919;SDS011;30655;53.094;6.072;2022-09-23T16:56:08;24.58;;;20.63;;
44919;SDS011;30655;53.094;6.072;2022-09-23T16:58:56;24.80;;;19.75;;
44919;SDS011;30655;53.094;6.072;2022-09-23T17:01:40;23.27;;;20.98;;